sensor_id;sensor_type;location;lat;lon;timestamp;pressure;altitude;pressure_sealevel;temperature
62930;BMP280;49036;42.782;23.108;2023-01-25T00:01:20;94983.03;;;-0.22
62930;BMP280;49036;42.782;23.108;2023-01-25T00:03:46;94991.66;;;-0.23
62930;BMP280;49036;42.782;23.108;2023-01-25T00:06:11;94995.69;;;-0.19
62930;BMP280;49036;42.782;23.108;2023-01-25T00:08:37;94998.38;;;-0.24
62930;BMP280;49036;42.782;23.108;2023-01-25T00:11:03;95000.31;;;-0.30
62930;BMP280;49036;42.782;23.108;2023-01-25T00:13:29;94997.81;;;-0.34
62930;BMP280;49036;42.782;23.108;2023-01-25T00:16:01;94997.31;;;-0.32
62930;BMP280;49036;42.782;23.108;2023-01-25T00:18:26;94988.63;;;-0.36
62930;BMP280;49036;42.782;23.108;2023-01-25T00:20:52;94998.03;;;-0.37
62930;BMP280;49036;42.782;23.108;2023-01-25T00:23:17;94992.31;;;-0.39
62930;BMP280;49036;42.782;23.108;2023-01-25T00:25:43;94989.31;;;-0.47
62930;BMP280;49036;42.782;23.108;2023-01-25T00:28:08;94993.47;;;-0.52
62930;BMP280;49036;42.782;23.108;2023-01-25T00:30:34;94996.44;;;-0.50
62930;BMP280;49036;42.782;23.108;2023-01-25T00:33:43;94998.97;;;-0.46
62930;BMP280;49036;42.782;23.108;2023-01-25T00:38:52;94996.78;;;-0.42
62930;BMP280;49036;42.782;23.108;2023-01-25T00:41:18;94999.00;;;-0.40
62930;BMP280;49036;42.782;23.108;2023-01-25T00:43:44;94998.03;;;-0.37
62930;BMP280;49036;42.782;23.108;2023-01-25T00:46:14;94995.09;;;-0.34
62930;BMP280;49036;42.782;23.108;2023-01-25T00:48:39;94993.91;;;-0.27
62930;BMP280;49036;42.782;23.108;2023-01-25T00:51:05;94996.63;;;-0.27
62930;BMP280;49036;42.782;23.108;2023-01-25T00:53:30;94995.59;;;-0.30
62930;BMP280;49036;42.782;23.108;2023-01-25T00:55:56;94997.56;;;-0.30
62930;BMP280;49036;42.782;23.108;2023-01-25T00:58:21;94994.84;;;-0.30
62930;BMP280;49036;42.782;23.108;2023-01-25T01:00:47;94986.47;;;-0.27
62930;BMP280;49036;42.782;23.108;2023-01-25T01:03:12;94990.69;;;-0.26
62930;BMP280;49036;42.782;23.108;2023-01-25T01:05:38;94987.47;;;-0.24
62930;BMP280;49036;42.782;23.108;2023-01-25T01:08:03;94991.16;;;-0.27
62930;BMP280;49036;42.782;23.108;2023-01-25T01:10:29;94988.16;;;-0.29
62930;BMP280;49036;42.782;23.108;2023-01-25T01:12:54;94993.38;;;-0.31
62930;BMP280;49036;42.782;23.108;2023-01-25T01:15:20;94990.38;;;-0.33
62930;BMP280;49036;42.782;23.108;2023-01-25T01:17:45;94981.47;;;-0.34
62930;BMP280;49036;42.782;23.108;2023-01-25T01:20:11;94986.63;;;-0.36
62930;BMP280;49036;42.782;23.108;2023-01-25T01:22:37;94983.16;;;-0.36
62930;BMP280;49036;42.782;23.108;2023-01-25T01:25:03;94975.25;;;-0.34
62930;BMP280;49036;42.782;23.108;2023-01-25T01:27:29;94978.94;;;-0.37
62930;BMP280;49036;42.782;23.108;2023-01-25T01:29:54;94971.97;;;-0.44
62930;BMP280;49036;42.782;23.108;2023-01-25T01:32:20;94972.97;;;-0.41
62930;BMP280;49036;42.782;23.108;2023-01-25T01:34:45;94980.88;;;-0.43
62930;BMP280;49036;42.782;23.108;2023-01-25T01:37:11;94969.97;;;-0.43
62930;BMP280;49036;42.782;23.108;2023-01-25T01:39:37;94973.94;;;-0.45
62930;BMP280;49036;42.782;23.108;2023-01-25T01:42:03;94976.41;;;-0.47
62930;BMP280;49036;42.782;23.108;2023-01-25T01:47:14;94981.38;;;-0.45
62930;BMP280;49036;42.782;23.108;2023-01-25T01:49:52;94973.41;;;-0.49
62930;BMP280;49036;42.782;23.108;2023-01-25T01:52:23;94977.66;;;-0.48
62930;BMP280;49036;42.782;23.108;2023-01-25T01:55:02;94966.69;;;-0.53
62930;BMP280;49036;42.782;23.108;2023-01-25T01:57:40;94972.91;;;-0.53
62930;BMP280;49036;42.782;23.108;2023-01-25T02:00:11;94974.66;;;-0.50
62930;BMP280;49036;42.782;23.108;2023-01-25T02:02:38;94970.91;;;-0.52
62930;BMP280;49036;42.782;23.108;2023-01-25T02:05:06;94964.47;;;-0.49
62930;BMP280;49036;42.782;23.108;2023-01-25T02:07:36;94967.50;;;-0.47
62930;BMP280;49036;42.782;23.108;2023-01-25T02:10:07;94973.16;;;-0.51
62930;BMP280;49036;42.782;23.108;2023-01-25T02:12:34;94966.41;;;-0.55
62930;BMP280;49036;42.782;23.108;2023-01-25T02:15:01;94963.94;;;-0.59
62930;BMP280;49036;42.782;23.108;2023-01-25T02:17:28;94969.88;;;-0.60
62930;BMP280;49036;42.782;23.108;2023-01-25T02:20:16;94973.59;;;-0.58
62930;BMP280;49036;42.782;23.108;2023-01-25T02:22:51;94971.13;;;-0.56
62930;BMP280;49036;42.782;23.108;2023-01-25T02:25:17;94966.22;;;-0.52
62930;BMP280;49036;42.782;23.108;2023-01-25T02:27:47;94966.97;;;-0.51
62930;BMP280;49036;42.782;23.108;2023-01-25T02:30:15;94967.94;;;-0.49
62930;BMP280;49036;42.782;23.108;2023-01-25T02:32:41;94969.69;;;-0.51
62930;BMP280;49036;42.782;23.108;2023-01-25T02:35:07;94968.41;;;-0.56
62930;BMP280;49036;42.782;23.108;2023-01-25T02:37:32;94956.28;;;-0.55
62930;BMP280;49036;42.782;23.108;2023-01-25T02:39:58;94957.31;;;-0.47
62930;BMP280;49036;42.782;23.108;2023-01-25T02:42:23;94952.84;;;-0.50
62930;BMP280;49036;42.782;23.108;2023-01-25T02:44:49;94948.41;;;-0.47
62930;BMP280;49036;42.782;23.108;2023-01-25T02:47:15;94950.16;;;-0.44
62930;BMP280;49036;42.782;23.108;2023-01-25T02:49:40;94957.63;;;-0.39
62930;BMP280;49036;42.782;23.108;2023-01-25T02:52:06;94954.84;;;-0.45
62930;BMP280;49036;42.782;23.108;2023-01-25T02:54:31;94955.88;;;-0.42
62930;BMP280;49036;42.782;23.108;2023-01-25T02:56:57;94950.88;;;-0.43
62930;BMP280;49036;42.782;23.108;2023-01-25T02:59:22;94965.06;;;-0.39
62930;BMP280;49036;42.782;23.108;2023-01-25T03:01:48;94953.91;;;-0.36
62930;BMP280;49036;42.782;23.108;2023-01-25T03:04:14;94950.94;;;-0.38
62930;BMP280;49036;42.782;23.108;2023-01-25T03:06:40;94950.94;;;-0.38
62930;BMP280;49036;42.782;23.108;2023-01-25T03:09:08;94953.16;;;-0.36
62930;BMP280;49036;42.782;23.108;2023-01-25T03:11:34;94951.66;;;-0.37
62930;BMP280;49036;42.782;23.108;2023-01-25T03:13:59;94954.34;;;-0.43
62930;BMP280;49036;42.782;23.108;2023-01-25T03:16:25;94947.19;;;-0.40
62930;BMP280;49036;42.782;23.108;2023-01-25T03:18:54;94947.13;;;-0.52
62930;BMP280;49036;42.782;23.108;2023-01-25T03:21:21;94960.72;;;-0.57
62930;BMP280;49036;42.782;23.108;2023-01-25T03:23:52;94962.22;;;-0.56
62930;BMP280;49036;42.782;23.108;2023-01-25T03:26:20;94964.72;;;-0.53
62930;BMP280;49036;42.782;23.108;2023-01-25T03:28:46;94954.56;;;-0.52
62930;BMP280;49036;42.782;23.108;2023-01-25T03:31:13;94951.84;;;-0.52
62930;BMP280;49036;42.782;23.108;2023-01-25T03:33:40;94953.38;;;-0.46
62930;BMP280;49036;42.782;23.108;2023-01-25T03:36:06;94960.25;;;-0.50
62930;BMP280;49036;42.782;23.108;2023-01-25T03:38:32;94950.84;;;-0.49
62930;BMP280;49036;42.782;23.108;2023-01-25T03:40:57;94958.78;;;-0.51
62930;BMP280;49036;42.782;23.108;2023-01-25T03:43:23;94953.81;;;-0.53
62930;BMP280;49036;42.782;23.108;2023-01-25T03:45:54;94956.28;;;-0.55
62930;BMP280;49036;42.782;23.108;2023-01-25T03:48:21;94949.59;;;-0.54
62930;BMP280;49036;42.782;23.108;2023-01-25T03:50:52;94948.84;;;-0.54
62930;BMP280;49036;42.782;23.108;2023-01-25T03:53:20;94951.31;;;-0.56
62930;BMP280;49036;42.782;23.108;2023-01-25T03:55:57;94949.56;;;-0.59
62930;BMP280;49036;42.782;23.108;2023-01-25T03:58:23;94955.50;;;-0.61
62930;BMP280;49036;42.782;23.108;2023-01-25T04:00:49;94943.63;;;-0.58
62930;BMP280;49036;42.782;23.108;2023-01-25T04:03:14;94943.09;;;-0.62
62930;BMP280;49036;42.782;23.108;2023-01-25T04:05:41;94945.06;;;-0.62
62930;BMP280;49036;42.782;23.108;2023-01-25T04:08:07;94948.31;;;-0.58
62930;BMP280;49036;42.782;23.108;2023-01-25T04:10:33;94942.88;;;-0.58
62930;BMP280;49036;42.782;23.108;2023-01-25T04:12:58;94946.56;;;-0.61
62930;BMP280;49036;42.782;23.108;2023-01-25T04:15:24;94942.13;;;-0.59
62930;BMP280;49036;42.782;23.108;2023-01-25T04:17:49;94951.00;;;-0.64
62930;BMP280;49036;42.782;23.108;2023-01-25T04:20:15;94937.38;;;-0.64
62930;BMP280;49036;42.782;23.108;2023-01-25T04:22:40;94945.03;;;-0.68
62930;BMP280;49036;42.782;23.108;2023-01-25T04:25:06;94941.56;;;-0.68
62930;BMP280;49036;42.782;23.108;2023-01-25T04:27:32;94940.31;;;-0.73
62930;BMP280;49036;42.782;23.108;2023-01-25T04:29:58;94939.34;;;-0.70
62930;BMP280;49036;42.782;23.108;2023-01-25T04:32:23;94937.09;;;-0.71
62930;BMP280;49036;42.782;23.108;2023-01-25T04:34:49;94946.78;;;-0.65
62930;BMP280;49036;42.782;23.108;2023-01-25T04:37:14;94945.06;;;-0.62
62930;BMP280;49036;42.782;23.108;2023-01-25T04:39:40;94939.88;;;-0.60
62930;BMP280;49036;42.782;23.108;2023-01-25T04:42:05;94943.56;;;-0.63
62930;BMP280;49036;42.782;23.108;2023-01-25T04:44:31;94948.31;;;-0.58
62930;BMP280;49036;42.782;23.108;2023-01-25T04:46:56;94953.25;;;-0.62
62930;BMP280;49036;42.782;23.108;2023-01-25T04:49:22;94945.28;;;-0.66
62930;BMP280;49036;42.782;23.108;2023-01-25T04:51:47;94949.50;;;-0.70
62930;BMP280;49036;42.782;23.108;2023-01-25T04:54:13;94949.75;;;-0.68
62930;BMP280;49036;42.782;23.108;2023-01-25T04:56:38;94943.03;;;-0.73
62930;BMP280;49036;42.782;23.108;2023-01-25T04:59:04;94950.72;;;-0.71
62930;BMP280;49036;42.782;23.108;2023-01-25T05:01:29;94950.72;;;-0.71
62930;BMP280;49036;42.782;23.108;2023-01-25T05:03:57;94947.47;;;-0.76
62930;BMP280;49036;42.782;23.108;2023-01-25T05:06:23;94943.03;;;-0.73
62930;BMP280;49036;42.782;23.108;2023-01-25T05:08:48;94948.50;;;-0.73
62930;BMP280;49036;42.782;23.108;2023-01-25T05:11:14;94951.44;;;-0.77
62930;BMP280;49036;42.782;23.108;2023-01-25T05:13:39;94943.22;;;-0.82
62930;BMP280;49036;42.782;23.108;2023-01-25T05:16:05;94939.75;;;-0.83
62930;BMP280;49036;42.782;23.108;2023-01-25T05:18:30;94940.78;;;-0.80
62930;BMP280;49036;42.782;23.108;2023-01-25T05:20:56;94941.97;;;-0.81
62930;BMP280;49036;42.782;23.108;2023-01-25T05:23:22;94946.47;;;-0.78
62930;BMP280;49036;42.782;23.108;2023-01-25T05:25:47;94951.94;;;-0.78
62930;BMP280;49036;42.782;23.108;2023-01-25T05:28:31;94944.25;;;-0.80
62930;BMP280;49036;42.782;23.108;2023-01-25T05:30:57;94946.25;;;-0.75
62930;BMP280;49036;42.782;23.108;2023-01-25T05:33:22;94940.31;;;-0.73
62930;BMP280;49036;42.782;23.108;2023-01-25T05:35:48;94940.56;;;-0.71
62930;BMP280;49036;42.782;23.108;2023-01-25T05:38:13;94948.22;;;-0.75
62930;BMP280;49036;42.782;23.108;2023-01-25T05:40:39;94954.69;;;-0.73
62930;BMP280;49036;42.782;23.108;2023-01-25T05:43:04;94948.22;;;-0.75
62930;BMP280;49036;42.782;23.108;2023-01-25T05:45:30;94950.00;;;-0.72
62930;BMP280;49036;42.782;23.108;2023-01-25T05:47:56;94948.22;;;-0.75
62930;BMP280;49036;42.782;23.108;2023-01-25T05:50:23;94955.66;;;-0.76
62930;BMP280;49036;42.782;23.108;2023-01-25T05:52:49;94957.91;;;-0.74
62930;BMP280;49036;42.782;23.108;2023-01-25T05:55:14;94954.19;;;-0.71
62930;BMP280;49036;42.782;23.108;2023-01-25T05:57:40;94955.19;;;-0.68
62930;BMP280;49036;42.782;23.108;2023-01-25T06:00:07;94962.16;;;-0.62
62930;BMP280;49036;42.782;23.108;2023-01-25T06:02:33;94961.16;;;-0.64
62930;BMP280;49036;42.782;23.108;2023-01-25T06:04:59;94959.94;;;-0.63
62930;BMP280;49036;42.782;23.108;2023-01-25T06:07:24;94958.69;;;-0.62
62930;BMP280;49036;42.782;23.108;2023-01-25T06:09:50;94959.47;;;-0.56
62930;BMP280;49036;42.782;23.108;2023-01-25T06:12:19;94962.75;;;-0.52
62930;BMP280;49036;42.782;23.108;2023-01-25T06:14:45;94955.31;;;-0.52
62930;BMP280;49036;42.782;23.108;2023-01-25T06:17:11;94959.75;;;-0.54
62930;BMP280;49036;42.782;23.108;2023-01-25T06:19:37;94963.28;;;-0.48
62930;BMP280;49036;42.782;23.108;2023-01-25T06:22:02;94968.97;;;-0.46
62930;BMP280;49036;42.782;23.108;2023-01-25T06:24:28;94965.25;;;-0.43
62930;BMP280;49036;42.782;23.108;2023-01-25T06:26:53;94962.06;;;-0.41
62930;BMP280;49036;42.782;23.108;2023-01-25T06:29:19;94951.16;;;-0.41
62930;BMP280;49036;42.782;23.108;2023-01-25T06:31:44;94945.94;;;-0.45
62930;BMP280;49036;42.782;23.108;2023-01-25T06:34:10;94952.63;;;-0.46
62930;BMP280;49036;42.782;23.108;2023-01-25T06:36:35;94955.59;;;-0.44
62930;BMP280;49036;42.782;23.108;2023-01-25T06:39:01;94949.91;;;-0.46
62930;BMP280;49036;42.782;23.108;2023-01-25T06:41:26;94955.34;;;-0.46
62930;BMP280;49036;42.782;23.108;2023-01-25T06:43:52;94949.41;;;-0.45
62930;BMP280;49036;42.782;23.108;2023-01-25T06:46:18;94948.91;;;-0.43
62930;BMP280;49036;42.782;23.108;2023-01-25T06:48:44;94958.59;;;-0.42
62930;BMP280;49036;42.782;23.108;2023-01-25T06:51:11;94957.09;;;-0.43
62930;BMP280;49036;42.782;23.108;2023-01-25T06:53:40;94955.34;;;-0.46
62930;BMP280;49036;42.782;23.108;2023-01-25T06:56:11;94951.59;;;-0.49
62930;BMP280;49036;42.782;23.108;2023-01-25T06:58:37;94946.94;;;-0.42
62930;BMP280;49036;42.782;23.108;2023-01-25T07:01:09;94959.63;;;-0.34
62930;BMP280;49036;42.782;23.108;2023-01-25T07:03:37;94958.69;;;-0.25
62930;BMP280;49036;42.782;23.108;2023-01-25T07:06:04;94951.28;;;-0.19
62930;BMP280;49036;42.782;23.108;2023-01-25T07:08:31;94952.78;;;-0.18
62930;BMP280;49036;42.782;23.108;2023-01-25T07:10:58;94946.41;;;-0.09
62930;BMP280;49036;42.782;23.108;2023-01-25T07:13:25;94945.66;;;-0.04
62930;BMP280;49036;42.782;23.108;2023-01-25T07:15:55;94951.84;;;-0.04
62930;BMP280;49036;42.782;23.108;2023-01-25T07:18:21;94951.41;;;0.03
62930;BMP280;49036;42.782;23.108;2023-01-25T07:20:47;94956.09;;;0.03
62930;BMP280;49036;42.782;23.108;2023-01-25T07:23:12;94953.88;;;0.01
62930;BMP280;49036;42.782;23.108;2023-01-25T07:25:45;94964.81;;;0.07
62930;BMP280;49036;42.782;23.108;2023-01-25T07:28:11;94967.06;;;0.14
62930;BMP280;49036;42.782;23.108;2023-01-25T07:30:37;94962.16;;;0.24
62930;BMP280;49036;42.782;23.108;2023-01-25T07:33:02;94974.06;;;0.21
62930;BMP280;49036;42.782;23.108;2023-01-25T07:35:28;94969.88;;;0.25
62930;BMP280;49036;42.782;23.108;2023-01-25T07:37:54;94979.78;;;0.28
62930;BMP280;49036;42.782;23.108;2023-01-25T07:40:20;94982.50;;;0.28
62930;BMP280;49036;42.782;23.108;2023-01-25T07:42:49;94989.97;;;0.28
62930;BMP280;49036;42.782;23.108;2023-01-25T07:45:15;94986.75;;;0.29
62930;BMP280;49036;42.782;23.108;2023-01-25T07:47:41;94976.59;;;0.30
62930;BMP280;49036;42.782;23.108;2023-01-25T07:50:07;94983.75;;;0.27
62930;BMP280;49036;42.782;23.108;2023-01-25T07:52:33;94975.84;;;0.29
62930;BMP280;49036;42.782;23.108;2023-01-25T07:54:58;94969.59;;;0.34
62930;BMP280;49036;42.782;23.108;2023-01-25T07:57:24;94971.13;;;0.35
62930;BMP280;49036;42.782;23.108;2023-01-25T07:59:50;94970.38;;;0.41
62930;BMP280;49036;42.782;23.108;2023-01-25T08:02:15;94961.97;;;0.44
62930;BMP280;49036;42.782;23.108;2023-01-25T08:04:41;94975.88;;;0.52
62930;BMP280;49036;42.782;23.108;2023-01-25T08:07:07;94965.94;;;0.54
62930;BMP280;49036;42.782;23.108;2023-01-25T08:09:33;94958.78;;;0.57
62930;BMP280;49036;42.782;23.108;2023-01-25T08:11:58;94960.31;;;0.69
62930;BMP280;49036;42.782;23.108;2023-01-25T08:14:24;94957.28;;;0.67
62930;BMP280;49036;42.782;23.108;2023-01-25T08:16:49;94957.06;;;0.71
62930;BMP280;49036;42.782;23.108;2023-01-25T08:19:15;94954.09;;;0.80
62930;BMP280;49036;42.782;23.108;2023-01-25T08:21:40;94955.59;;;0.86
62930;BMP280;49036;42.782;23.108;2023-01-25T08:24:06;94955.09;;;0.99
62930;BMP280;49036;42.782;23.108;2023-01-25T08:26:34;94951.13;;;1.06
62930;BMP280;49036;42.782;23.108;2023-01-25T08:29:00;94954.13;;;1.13
62930;BMP280;49036;42.782;23.108;2023-01-25T08:31:28;94945.19;;;1.13
62930;BMP280;49036;42.782;23.108;2023-01-25T08:33:54;94953.13;;;1.16
62930;BMP280;49036;42.782;23.108;2023-01-25T08:36:20;94957.81;;;1.05
62930;BMP280;49036;42.782;23.108;2023-01-25T08:38:56;94960.34;;;1.14
62930;BMP280;49036;42.782;23.108;2023-01-25T08:41:22;94955.09;;;1.10
62930;BMP280;49036;42.782;23.108;2023-01-25T08:43:49;94963.81;;;1.14
62930;BMP280;49036;42.782;23.108;2023-01-25T08:46:15;94957.09;;;1.10
62930;BMP280;49036;42.782;23.108;2023-01-25T08:48:41;94955.34;;;1.12
62930;BMP280;49036;42.782;23.108;2023-01-25T08:51:07;94957.34;;;1.17
62930;BMP280;49036;42.782;23.108;2023-01-25T08:53:33;94951.13;;;1.17
62930;BMP280;49036;42.782;23.108;2023-01-25T08:56:07;94958.09;;;1.18
62930;BMP280;49036;42.782;23.108;2023-01-25T08:58:32;94958.59;;;1.16
62930;BMP280;49036;42.782;23.108;2023-01-25T09:01:03;94960.81;;;1.18
62930;BMP280;49036;42.782;23.108;2023-01-25T09:03:29;94960.34;;;1.19
62930;BMP280;49036;42.782;23.108;2023-01-25T09:05:55;94960.56;;;1.33
62930;BMP280;49036;42.782;23.108;2023-01-25T09:08:21;94949.16;;;1.29
62930;BMP280;49036;42.782;23.108;2023-01-25T09:10:46;94946.63;;;1.31
62930;BMP280;49036;42.782;23.108;2023-01-25T09:13:12;94948.63;;;1.36
62930;BMP280;49036;42.782;23.108;2023-01-25T09:15:39;94955.09;;;1.38
62930;BMP280;49036;42.782;23.108;2023-01-25T09:18:05;94948.66;;;1.30
62930;BMP280;49036;42.782;23.108;2023-01-25T09:20:31;94947.66;;;1.28
62930;BMP280;49036;42.782;23.108;2023-01-25T09:22:56;94945.66;;;1.23
62930;BMP280;49036;42.782;23.108;2023-01-25T09:25:22;94938.94;;;1.18
62930;BMP280;49036;42.782;23.108;2023-01-25T09:27:49;94933.75;;;1.14
62930;BMP280;49036;42.782;23.108;2023-01-25T09:30:17;94932.00;;;1.17
62930;BMP280;49036;42.782;23.108;2023-01-25T09:32:43;94924.53;;;1.12
62930;BMP280;49036;42.782;23.108;2023-01-25T09:35:09;94926.28;;;1.09
62930;BMP280;49036;42.782;23.108;2023-01-25T09:37:35;94933.97;;;1.11
62930;BMP280;49036;42.782;23.108;2023-01-25T09:40:00;94928.78;;;1.13
62930;BMP280;49036;42.782;23.108;2023-01-25T09:42:57;94918.84;;;1.27
62930;BMP280;49036;42.782;23.108;2023-01-25T09:47:58;94910.38;;;1.19
62930;BMP280;49036;42.782;23.108;2023-01-25T09:53:21;94898.13;;;1.42
62930;BMP280;49036;42.782;23.108;2023-01-25T09:55:54;94892.84;;;1.67
62930;BMP280;49036;42.782;23.108;2023-01-25T09:58:29;94890.84;;;1.79
62930;BMP280;49036;42.782;23.108;2023-01-25T10:01:17;94881.88;;;1.84
62930;BMP280;49036;42.782;23.108;2023-01-25T10:03:53;94876.88;;;1.76
62930;BMP280;49036;42.782;23.108;2023-01-25T10:06:22;94871.75;;;1.62
62930;BMP280;49036;42.782;23.108;2023-01-25T10:09:01;94873.22;;;1.63
62930;BMP280;49036;42.782;23.108;2023-01-25T10:11:30;94873.53;;;1.42
62930;BMP280;49036;42.782;23.108;2023-01-25T10:13:57;94871.28;;;1.41
62930;BMP280;49036;42.782;23.108;2023-01-25T10:16:33;94865.59;;;1.39
62930;BMP280;49036;42.782;23.108;2023-01-25T10:21:32;94851.63;;;1.54
62930;BMP280;49036;42.782;23.108;2023-01-25T10:27:27;94848.00;;;1.87
62930;BMP280;49036;42.782;23.108;2023-01-25T10:30:01;94842.69;;;2.00
62930;BMP280;49036;42.782;23.108;2023-01-25T10:32:28;94839.69;;;2.09
62930;BMP280;49036;42.782;23.108;2023-01-25T10:35:04;94845.75;;;2.26
62930;BMP280;49036;42.782;23.108;2023-01-25T10:37:36;94825.19;;;2.50
62930;BMP280;49036;42.782;23.108;2023-01-25T10:42:44;94819.38;;;2.29
62930;BMP280;49036;42.782;23.108;2023-01-25T10:45:13;94818.00;;;2.47
62930;BMP280;49036;42.782;23.108;2023-01-25T10:47:41;94814.97;;;2.50
62930;BMP280;49036;42.782;23.108;2023-01-25T10:53:29;94817.88;;;2.64
62930;BMP280;49036;42.782;23.108;2023-01-25T10:58:44;94804.50;;;2.79
62930;BMP280;49036;42.782;23.108;2023-01-25T11:03:52;94789.22;;;2.89
62930;BMP280;49036;42.782;23.108;2023-01-25T11:06:36;94794.00;;;2.83
62930;BMP280;49036;42.782;23.108;2023-01-25T11:09:29;94787.59;;;2.75
62930;BMP280;49036;42.782;23.108;2023-01-25T11:11:57;94777.78;;;2.85
62930;BMP280;49036;42.782;23.108;2023-01-25T11:14:25;94780.78;;;2.87
62930;BMP280;49036;42.782;23.108;2023-01-25T11:16:51;94776.34;;;3.03
62930;BMP280;49036;42.782;23.108;2023-01-25T11:19:29;94775.78;;;3.10
62930;BMP280;49036;42.782;23.108;2023-01-25T11:21:57;94774.78;;;2.88
62930;BMP280;49036;42.782;23.108;2023-01-25T11:24:31;94769.47;;;2.96
62930;BMP280;49036;42.782;23.108;2023-01-25T11:27:23;94765.28;;;3.14
62930;BMP280;49036;42.782;23.108;2023-01-25T11:32:26;94757.91;;;3.46
62930;BMP280;49036;42.782;23.108;2023-01-25T11:34:51;94756.69;;;3.42
62930;BMP280;49036;42.782;23.108;2023-01-25T11:48:34;94731.66;;;3.70
62930;BMP280;49036;42.782;23.108;2023-01-25T11:51:15;94741.50;;;3.60
62930;BMP280;49036;42.782;23.108;2023-01-25T12:21:43;94703.91;;;3.36
62930;BMP280;49036;42.782;23.108;2023-01-25T12:29:41;94694.72;;;3.33
62930;BMP280;49036;42.782;23.108;2023-01-25T12:32:19;94696.06;;;3.45
62930;BMP280;49036;42.782;23.108;2023-01-25T12:34:51;94687.34;;;3.60
62930;BMP280;49036;42.782;23.108;2023-01-25T12:37:25;94687.13;;;3.58
62930;BMP280;49036;42.782;23.108;2023-01-25T12:40:00;94683.09;;;3.78
62930;BMP280;49036;42.782;23.108;2023-01-25T12:42:43;94682.06;;;3.62
62930;BMP280;49036;42.782;23.108;2023-01-25T12:45:32;94671.81;;;3.31
62930;BMP280;49036;42.782;23.108;2023-01-25T12:50:40;94674.78;;;3.52
62930;BMP280;49036;42.782;23.108;2023-01-25T12:53:46;94681.84;;;3.60
62930;BMP280;49036;42.782;23.108;2023-01-25T12:56:41;94671.56;;;3.47
62930;BMP280;49036;42.782;23.108;2023-01-25T12:59:53;94673.00;;;3.35
62930;BMP280;49036;42.782;23.108;2023-01-25T13:05:15;94661.72;;;3.20
62930;BMP280;49036;42.782;23.108;2023-01-25T13:07:52;94659.81;;;3.15
62930;BMP280;49036;42.782;23.108;2023-01-25T13:10:29;94662.00;;;2.98
62930;BMP280;49036;42.782;23.108;2023-01-25T13:13:00;94655.44;;;2.87
62930;BMP280;49036;42.782;23.108;2023-01-25T13:15:37;94658.50;;;2.78
62930;BMP280;49036;42.782;23.108;2023-01-25T13:20:59;94659.44;;;2.86
62930;BMP280;49036;42.782;23.108;2023-01-25T13:28:57;94644.75;;;2.84
62930;BMP280;49036;42.782;23.108;2023-01-25T13:37:25;94663.25;;;2.78
62930;BMP280;49036;42.782;23.108;2023-01-25T13:39:59;94663.47;;;2.61
62930;BMP280;49036;42.782;23.108;2023-01-25T13:42:29;94654.53;;;2.55
62930;BMP280;49036;42.782;23.108;2023-01-25T13:44:58;94658.63;;;2.48
62930;BMP280;49036;42.782;23.108;2023-01-25T13:47:32;94663.78;;;2.27
62930;BMP280;49036;42.782;23.108;2023-01-25T13:53:03;94676.22;;;1.98
62930;BMP280;49036;42.782;23.108;2023-01-25T13:55:43;94675.59;;;1.87
62930;BMP280;49036;42.782;23.108;2023-01-25T13:58:16;94675.22;;;1.71
62930;BMP280;49036;42.782;23.108;2023-01-25T14:01:04;94677.00;;;1.63
62930;BMP280;49036;42.782;23.108;2023-01-25T14:03:35;94679.78;;;1.58
62930;BMP280;49036;42.782;23.108;2023-01-25T14:06:02;94672.63;;;1.49
62930;BMP280;49036;42.782;23.108;2023-01-25T14:08:29;94672.09;;;1.51
62930;BMP280;49036;42.782;23.108;2023-01-25T14:10:56;94675.84;;;1.47
62930;BMP280;49036;42.782;23.108;2023-01-25T14:13:22;94674.13;;;1.44
62930;BMP280;49036;42.782;23.108;2023-01-25T14:15:58;94681.63;;;1.38
62930;BMP280;49036;42.782;23.108;2023-01-25T14:18:32;94674.69;;;1.32
62930;BMP280;49036;42.782;23.108;2023-01-25T14:21:16;94680.72;;;1.25
62930;BMP280;49036;42.782;23.108;2023-01-25T14:23:42;94676.25;;;1.22
62930;BMP280;49036;42.782;23.108;2023-01-25T14:26:26;94674.03;;;1.20
62930;BMP280;49036;42.782;23.108;2023-01-25T14:28:54;94671.31;;;1.14
62930;BMP280;49036;42.782;23.108;2023-01-25T14:31:36;94665.88;;;1.09
62930;BMP280;49036;42.782;23.108;2023-01-25T14:34:02;94665.38;;;1.10
62930;BMP280;49036;42.782;23.108;2023-01-25T14:36:31;94650.75;;;1.02
62930;BMP280;49036;42.782;23.108;2023-01-25T14:38:58;94652.53;;;0.94
62930;BMP280;49036;42.782;23.108;2023-01-25T14:41:26;94657.50;;;0.90
62930;BMP280;49036;42.782;23.108;2023-01-25T14:43:55;94653.56;;;0.80
62930;BMP280;49036;42.782;23.108;2023-01-25T14:46:27;94661.31;;;0.76
62930;BMP280;49036;42.782;23.108;2023-01-25T14:54:18;94664.81;;;0.54
62930;BMP280;49036;42.782;23.108;2023-01-25T14:56:47;94658.38;;;0.51
62930;BMP280;49036;42.782;23.108;2023-01-25T14:59:25;94666.56;;;0.46
62930;BMP280;49036;42.782;23.108;2023-01-25T15:01:52;94671.31;;;0.40
62930;BMP280;49036;42.782;23.108;2023-01-25T15:04:18;94670.31;;;0.37
62930;BMP280;49036;42.782;23.108;2023-01-25T15:06:52;94682.00;;;0.32
62930;BMP280;49036;42.782;23.108;2023-01-25T15:10:02;94685.47;;;0.27
62930;BMP280;49036;42.782;23.108;2023-01-25T15:12:29;94679.53;;;0.17
62930;BMP280;49036;42.782;23.108;2023-01-25T15:14:57;94696.41;;;0.16
62930;BMP280;49036;42.782;23.108;2023-01-25T15:17:46;94694.69;;;0.18
62930;BMP280;49036;42.782;23.108;2023-01-25T15:20:39;94698.66;;;0.17
62930;BMP280;49036;42.782;23.108;2023-01-25T15:23:32;94704.09;;;0.12
62930;BMP280;49036;42.782;23.108;2023-01-25T15:25:59;94698.41;;;0.09
62930;BMP280;49036;42.782;23.108;2023-01-25T15:28:28;94697.41;;;0.07
62930;BMP280;49036;42.782;23.108;2023-01-25T15:30:54;94697.91;;;0.05
62930;BMP280;49036;42.782;23.108;2023-01-25T15:33:29;94699.88;;;-0.01
62930;BMP280;49036;42.782;23.108;2023-01-25T15:35:55;94703.13;;;0.03
62930;BMP280;49036;42.782;23.108;2023-01-25T15:38:20;94696.88;;;0.03
62930;BMP280;49036;42.782;23.108;2023-01-25T15:40:47;94697.38;;;0.01
62930;BMP280;49036;42.782;23.108;2023-01-25T15:43:17;94696.91;;;-0.03
62930;BMP280;49036;42.782;23.108;2023-01-25T15:45:44;94700.09;;;-0.04
62930;BMP280;49036;42.782;23.108;2023-01-25T15:48:13;94702.84;;;-0.10
62930;BMP280;49036;42.782;23.108;2023-01-25T15:50:39;94705.59;;;-0.10
62930;BMP280;49036;42.782;23.108;2023-01-25T15:53:05;94695.66;;;-0.13
62930;BMP280;49036;42.782;23.108;2023-01-25T15:55:31;94694.16;;;-0.14